Time;durP1;ratioP1;P1;durP2;ratioP2;P2;SDS_P1;SDS_P2;PMS_P1;PMS_P2;Temp;Humidity;BMP_temperature;BMP_pressure;BME280_temperature;BME280_humidity;BME280_pressure;Samples;Min_cycle;Max_cycle;Signal;HPM_P1;HPM_P2
2021/06/11 00:01:45;;;;;;;2.37;2.17;;;;;;;18.25;62.82;99544.22;4982601;28;20572;-80
2021/06/11 00:04:12;;;;;;;2.40;2.20;;;;;;;18.22;63.01;99552.91;4997670;28;20639;-80
2021/06/11 00:06:38;;;;;;;2.10;1.90;;;;;;;18.15;63.99;99546.97;4982025;28;20228;-82
2021/06/11 00:09:07;;;;;;;2.80;2.13;;;;;;;18.06;64.13;99546.66;4998413;28;20235;-79
2021/06/11 00:11:34;;;;;;;2.10;2.00;;;;;;;18.10;64.03;99553.19;4998478;28;20233;-80
2021/06/11 00:14:01;;;;;;;2.10;2.00;;;;;;;18.03;63.75;99539.91;4981235;28;20525;-77
2021/06/11 00:16:28;;;;;;;2.00;1.90;;;;;;;18.05;64.11;99539.63;4998257;28;20589;-82
2021/06/11 00:18:55;;;;;;;2.10;2.00;;;;;;;18.01;64.44;99547.47;4997872;28;20243;-81
2021/06/11 00:21:21;;;;;;;2.20;2.10;;;;;;;17.87;64.38;99540.94;4981965;28;20236;-80
2021/06/11 00:23:48;;;;;;;2.63;1.73;;;;;;;17.83;64.45;99536.34;4981619;28;20632;-79
2021/06/11 00:26:15;;;;;;;1.93;1.83;;;;;;;17.80;64.42;99537.69;4978000;28;20235;-86
2021/06/11 00:28:41;;;;;;;2.17;2.00;;;;;;;17.82;64.69;99554.53;4995621;28;20314;-84
2021/06/11 00:31:08;;;;;;;2.10;2.00;;;;;;;17.66;64.64;99528.47;4978526;28;20681;-79
2021/06/11 00:33:35;;;;;;;2.00;1.90;;;;;;;17.68;65.27;99539.88;4994624;28;20688;-83
2021/06/11 00:36:02;;;;;;;2.17;2.07;;;;;;;17.60;65.36;99540.38;4977816;28;20324;-81
2021/06/11 00:38:31;;;;;;;2.27;2.07;;;;;;;17.54;65.78;99541.41;4994259;28;20232;-82
2021/06/11 00:40:58;;;;;;;2.33;2.13;;;;;;;17.31;65.77;99525.66;4994545;28;20285;-83
2021/06/11 00:43:25;;;;;;;2.27;2.17;;;;;;;17.38;66.28;99540.56;4993931;28;20236;-84
2021/06/11 00:45:52;;;;;;;2.23;2.10;;;;;;;17.41;66.30;99544.59;4995235;28;20258;-79
2021/06/11 00:48:19;;;;;;;2.37;2.17;;;;;;;17.36;66.49;99542.69;4978011;28;20228;-81
2021/06/11 00:50:46;;;;;;;2.30;2.10;;;;;;;17.28;66.61;99537.00;4978526;28;20227;-82
2021/06/11 00:53:12;;;;;;;1.90;1.80;;;;;;;17.11;66.97;99524.50;4978257;28;20232;-83
2021/06/11 00:55:45;;;;;;;2.37;2.20;;;;;;;17.03;67.34;99516.06;4994154;28;20231;-80
2021/06/11 00:58:13;;;;;;;2.53;2.10;;;;;;;17.09;67.79;99532.03;4978489;28;20235;-81
2021/06/11 01:00:40;;;;;;;2.23;2.13;;;;;;;16.98;68.34;99533.06;4978198;28;20234;-80
2021/06/11 01:03:07;;;;;;;2.40;2.20;;;;;;;16.87;68.59;99522.47;4995420;28;20315;-80
2021/06/11 01:05:34;;;;;;;2.07;1.97;;;;;;;16.80;68.66;99514.56;4994173;28;20322;-85
2021/06/11 01:08:03;;;;;;;2.53;2.20;;;;;;;16.77;68.85;99525.94;4977637;28;20324;-79
2021/06/11 01:10:31;;;;;;;2.50;2.30;;;;;;;16.75;69.23;99517.25;4994122;28;20222;-84
2021/06/11 01:12:57;;;;;;;2.47;2.23;;;;;;;16.67;69.68;99521.28;4978365;28;20262;-82
2021/06/11 01:15:24;;;;;;;2.00;1.90;;;;;;;16.59;69.78;99510.97;4977821;28;20666;-84
2021/06/11 01:17:54;;;;;;;2.50;2.30;;;;;;;16.59;69.69;99513.66;4994008;28;20310;-81
2021/06/11 01:20:23;;;;;;;2.93;2.30;;;;;;;16.58;69.79;99511.22;4978217;28;20627;-86
2021/06/11 01:23:23;;;;;;;2.93;2.13;;;;;;;16.58;69.81;99519.31;4978062;28;20615;-83
2021/06/11 01:26:21;;;;;;;2.97;2.63;;;;;;;16.49;70.20;99521.69;4993948;28;20259;-86
2021/06/11 01:28:50;;;;;;;2.67;2.47;;;;;;;16.36;70.60;99514.03;4993645;28;20635;-78
2021/06/11 01:31:19;;;;;;;2.30;2.10;;;;;;;16.28;70.85;99518.00;4978137;28;20659;-80
2021/06/11 01:33:51;;;;;;;2.40;2.30;;;;;;;16.18;71.04;99515.25;4994091;28;20231;-83
2021/06/11 01:36:24;;;;;;;2.57;2.37;;;;;;;16.13;71.59;99509.00;4977570;28;20266;-81
2021/06/11 01:38:53;;;;;;;2.67;2.40;;;;;;;16.07;72.40;99520.81;4977686;28;20231;-85
2021/06/11 01:41:21;;;;;;;2.33;2.23;;;;;;;16.01;72.07;99516.44;4994092;28;20235;-80
2021/06/11 01:43:50;;;;;;;2.77;2.57;;;;;;;15.91;72.61;99509.06;4977827;28;20235;-80
2021/06/11 01:46:17;;;;;;;2.67;2.47;;;;;;;15.88;73.12;99509.59;4993888;28;20298;-85
2021/06/11 01:48:46;;;;;;;2.70;2.50;;;;;;;15.82;73.16;99513.28;4961948;28;20620;-81
2021/06/11 01:51:13;;;;;;;2.70;2.50;;;;;;;15.78;73.46;99510.31;4978047;28;20286;-85
2021/06/11 01:53:42;;;;;;;2.43;2.23;;;;;;;15.67;73.47;99505.91;4977531;28;20235;-80
2021/06/11 01:56:11;;;;;;;2.77;2.50;;;;;;;15.62;73.78;99505.84;4995643;28;20232;-79
2021/06/11 01:58:40;;;;;;;2.90;2.70;;;;;;;15.62;74.05;99513.94;4981412;28;20243;-84
2021/06/11 02:01:11;;;;;;;2.50;2.30;;;;;;;15.54;74.25;99500.09;4981049;28;20274;-80
2021/06/11 02:03:40;;;;;;;2.63;2.43;;;;;;;15.54;74.20;99516.28;4981342;28;20267;-79
2021/06/11 02:06:08;;;;;;;2.83;2.50;;;;;;;15.50;74.54;99513.22;4964720;28;20255;-83
2021/06/11 02:08:35;;;;;;;2.87;2.67;;;;;;;15.36;74.72;99502.03;4980771;28;20270;-80
2021/06/11 02:11:02;;;;;;;2.67;2.47;;;;;;;15.39;74.92;99515.03;4965131;28;20231;-80
2021/06/11 02:13:29;;;;;;;3.37;3.07;;;;;;;15.32;75.36;99517.09;4980856;28;20282;-84
2021/06/11 02:15:56;;;;;;;3.13;2.80;;;;;;;15.18;75.31;99505.06;4981147;28;20232;-83
2021/06/11 02:18:24;;;;;;;2.37;2.27;;;;;;;15.14;75.49;99505.81;4996525;28;20231;-83
2021/06/11 02:20:53;;;;;;;2.70;2.50;;;;;;;15.15;75.71;99513.66;4980839;28;20255;-79
2021/06/11 02:23:20;;;;;;;2.80;2.60;;;;;;;15.08;75.64;99517.59;4997647;28;20528;-80
2021/06/11 02:25:47;;;;;;;2.57;2.30;;;;;;;14.97;75.63;99514.81;4980576;28;20647;-82
2021/06/11 02:28:15;;;;;;;2.73;2.53;;;;;;;15.03;75.63;99522.94;4996543;28;20310;-80
2021/06/11 02:30:44;;;;;;;2.90;2.70;;;;;;;14.87;76.23;99503.88;4980691;28;20257;-82
2021/06/11 02:33:13;;;;;;;2.73;2.53;;;;;;;14.91;75.93;99512.28;4980891;28;20278;-84
2021/06/11 02:35:41;;;;;;;2.60;2.40;;;;;;;14.91;76.04;99507.72;4996475;28;20231;-79
2021/06/11 02:38:08;;;;;;;2.70;2.50;;;;;;;14.94;76.17;99515.28;4979740;28;20277;-80
2021/06/11 02:40:35;;;;;;;4.10;2.80;;;;;;;14.84;75.93;99508.94;4996544;28;20306;-82
2021/06/11 02:43:07;;;;;;;6.97;2.90;;;;;;;14.85;76.12;99515.97;4980594;28;20231;-82
2021/06/11 02:45:39;;;;;;;4.17;2.50;;;;;;;14.78;76.43;99520.75;4980335;28;20290;-84
2021/06/11 02:48:21;;;;;;;3.03;2.83;;;;;;;14.72;76.05;99522.56;4996130;28;20224;-80
2021/06/11 02:50:56;;;;;;;2.80;2.60;;;;;;;14.70;76.06;99523.84;4980491;28;20635;-79
2021/06/11 02:53:26;;;;;;;3.00;2.67;;;;;;;14.70;76.28;99527.38;4980240;28;20250;-82
2021/06/11 02:56:00;;;;;;;3.10;2.90;;;;;;;14.65;76.30;99515.72;4997675;28;20239;-80
2021/06/11 02:58:33;;;;;;;3.00;2.80;;;;;;;14.67;77.17;99519.78;4995772;28;20247;-82
2021/06/11 03:01:02;;;;;;;2.80;2.60;;;;;;;14.65;76.52;99518.41;4980028;28;20294;-79
2021/06/11 03:03:32;;;;;;;2.97;2.77;;;;;;;14.63;76.82;99521.34;4979939;28;20323;-85
2021/06/11 03:06:00;;;;;;;2.83;2.60;;;;;;;14.74;76.79;99536.63;4996158;28;20239;-82
2021/06/11 03:08:30;;;;;;;2.77;2.57;;;;;;;14.69;76.65;99538.41;4995082;28;20243;-79
2021/06/11 03:11:02;;;;;;;3.10;2.90;;;;;;;14.67;77.08;99544.06;4980162;28;20643;-80
2021/06/11 03:13:29;;;;;;;3.10;2.80;;;;;;;14.66;76.52;99545.09;4979816;28;20231;-84
2021/06/11 03:15:57;;;;;;;2.90;2.70;;;;;;;14.63;76.72;99526.75;4979923;28;20237;-80
2021/06/11 03:18:40;;;;;;;3.27;2.97;;;;;;;14.69;76.45;99524.94;4963337;28;20226;-85
2021/06/11 03:21:15;;;;;;;3.20;2.97;;;;;;;14.74;76.47;99525.84;4979928;28;20255;-82
2021/06/11 03:24:07;;;;;;;3.47;3.00;;;;;;;14.83;76.45;99527.03;4979796;28;20251;-81
2021/06/11 03:26:40;;;;;;;3.33;2.77;;;;;;;14.88;76.79;99528.97;4979479;28;20222;-81
2021/06/11 03:29:09;;;;;;;3.97;2.93;;;;;;;14.93;76.40;99519.03;4979656;28;20646;-83
2021/06/11 03:31:39;;;;;;;2.90;2.60;;;;;;;14.99;76.62;99530.72;4995747;28;20278;-87
2021/06/11 03:34:11;;;;;;;3.17;2.87;;;;;;;14.96;76.63;99520.44;4995447;28;20930;-81
2021/06/11 03:36:43;;;;;;;3.33;2.70;;;;;;;15.02;76.24;99526.72;4963615;28;20249;-82
2021/06/11 03:39:15;;;;;;;4.93;2.80;;;;;;;15.06;75.98;99528.66;4979600;28;20304;-85
2021/06/11 03:41:42;;;;;;;3.00;2.70;;;;;;;15.11;76.32;99539.53;4979536;28;20235;-81
2021/06/11 03:44:10;;;;;;;3.40;3.00;;;;;;;15.10;75.94;99532.50;4994661;28;20265;-82
2021/06/11 03:46:38;;;;;;;3.50;2.63;;;;;;;15.12;75.94;99533.03;4995500;28;20227;-83
2021/06/11 03:49:07;;;;;;;3.00;2.70;;;;;;;15.21;75.96;99534.22;4995479;28;20533;-84
2021/06/11 03:51:34;;;;;;;3.53;3.10;;;;;;;15.23;75.47;99528.59;4965853;28;20601;-79
2021/06/11 03:54:07;;;;;;;3.47;2.80;;;;;;;15.37;75.58;99530.66;5014017;28;20239;-84
2021/06/11 03:56:37;;;;;;;3.43;3.13;;;;;;;15.44;75.11;99533.16;4999328;28;20523;-80
2021/06/11 03:59:08;;;;;;;3.13;2.87;;;;;;;15.44;74.74;99520.47;4982395;28;20237;-81
2021/06/11 04:01:41;;;;;;;3.20;2.90;;;;;;;15.77;74.54;99527.56;5014763;28;20581;-81
2021/06/11 04:04:08;;;;;;;3.00;2.80;;;;;;;16.15;73.13;99523.03;5014353;28;20234;-80
2021/06/11 04:06:39;;;;;;;3.23;3.00;;;;;;;16.90;70.56;99525.47;4982428;28;20310;-84
2021/06/11 04:09:10;;;;;;;3.10;2.90;;;;;;;17.19;69.05;99528.56;4982600;28;20227;-80
2021/06/11 04:11:42;;;;;;;3.33;3.13;;;;;;;17.72;67.03;99532.00;4982254;28;20231;-79
2021/06/11 04:14:14;;;;;;;3.67;3.37;;;;;;;18.16;65.92;99510.59;4981722;28;20238;-79
2021/06/11 04:16:49;;;;;;;3.50;3.00;;;;;;;18.92;62.92;99522.19;5014858;28;20230;-79
2021/06/11 04:19:24;;;;;;;3.23;3.03;;;;;;;19.45;61.18;99517.91;5014531;28;20234;-83
2021/06/11 04:21:53;;;;;;;3.27;2.97;;;;;;;19.94;60.05;99514.31;5014484;28;20288;-83
2021/06/11 04:24:28;;;;;;;4.77;3.00;;;;;;;20.72;57.21;99527.81;4997538;28;20235;-82
2021/06/11 04:26:56;;;;;;;3.83;2.90;;;;;;;21.22;56.30;99538.16;5014531;28;20222;-81
2021/06/11 04:29:23;;;;;;;3.20;2.57;;;;;;;21.56;55.27;99567.94;4998064;28;20269;-81
2021/06/11 04:31:54;;;;;;;3.60;2.70;;;;;;;22.48;52.49;99638.38;5014139;28;20235;-82
2021/06/11 04:34:24;;;;;;;9.23;3.00;;;;;;;23.37;50.06;99637.09;4997619;28;20289;-79
2021/06/11 04:36:52;;;;;;;9.07;3.30;;;;;;;23.45;49.18;99561.78;4981959;28;20226;-79
2021/06/11 04:39:18;;;;;;;7.20;3.17;;;;;;;22.28;51.42;99546.72;5014165;28;20533;-82
2021/06/11 04:41:45;;;;;;;6.30;2.90;;;;;;;21.66;53.69;99542.44;5014102;28;20251;-80
2021/06/11 04:44:12;;;;;;;8.07;3.20;;;;;;;21.28;54.66;99533.41;5014655;28;20232;-81
2021/06/11 04:46:40;;;;;;;5.13;2.73;;;;;;;21.09;55.51;99539.59;4997710;28;20278;-83
2021/06/11 04:49:08;;;;;;;7.40;3.10;;;;;;;20.84;56.50;99537.19;5014136;28;20234;-83
2021/06/11 04:51:35;;;;;;;3.30;3.00;;;;;;;20.77;56.72;99546.78;4997382;28;20310;-81
2021/06/11 04:54:02;;;;;;;4.13;3.17;;;;;;;20.65;57.36;99539.03;4980970;28;20580;-81
2021/06/11 04:56:29;;;;;;;3.53;3.23;;;;;;;20.53;57.36;99542.13;4997598;28;20247;-79
2021/06/11 04:58:58;;;;;;;5.43;3.57;;;;;;;20.60;57.11;99550.78;4997843;28;20311;-80
2021/06/11 05:01:25;;;;;;;9.10;3.70;;;;;;;20.73;56.95;99546.56;4997582;28;20236;-79
2021/06/11 05:03:52;;;;;;;8.90;3.23;;;;;;;20.75;56.77;99551.72;4997400;28;20259;-80
2021/06/11 05:06:18;;;;;;;11.40;3.37;;;;;;;20.86;56.54;99540.41;4997106;28;20424;-81
2021/06/11 05:08:45;;;;;;;8.63;3.23;;;;;;;20.96;56.03;99542.22;5013754;28;20230;-83
2021/06/11 05:11:12;;;;;;;6.23;3.07;;;;;;;21.07;55.67;99551.91;4997365;28;20229;-83
2021/06/11 05:13:39;;;;;;;5.97;3.10;;;;;;;21.19;55.12;99555.06;4981458;28;20281;-84
2021/06/11 05:16:06;;;;;;;5.10;2.90;;;;;;;21.33;55.23;99557.88;5014250;28;20261;-80
2021/06/11 05:18:33;;;;;;;13.50;3.60;;;;;;;21.39;54.69;99551.28;4981450;28;20618;-81
2021/06/11 05:21:00;;;;;;;17.80;4.00;;;;;;;21.49;54.01;99542.97;4997280;28;20978;-81
2021/06/11 05:23:27;;;;;;;13.47;3.57;;;;;;;21.64;53.73;99550.94;5013616;28;20658;-84
2021/06/11 05:25:54;;;;;;;7.13;3.30;;;;;;;21.71;52.79;99559.56;4997300;28;20241;-83
2021/06/11 05:28:22;;;;;;;4.20;3.20;;;;;;;21.82;52.31;99547.41;4997205;28;20236;-79
2021/06/11 05:30:53;;;;;;;6.23;3.20;;;;;;;21.94;52.19;99549.69;5015299;28;20227;-79
2021/06/11 05:33:20;;;;;;;9.23;3.40;;;;;;;22.13;51.89;99558.69;5017427;28;20236;-82
2021/06/11 05:35:47;;;;;;;7.57;3.20;;;;;;;22.23;51.06;99547.59;5017521;28;20258;-81
2021/06/11 05:38:15;;;;;;;6.22;3.10;;;;;;;22.44;50.64;99556.28;5016955;28;20287;-81
2021/06/11 05:40:42;;;;;;;5.80;3.20;;;;;;;22.57;50.38;99543.75;5016943;28;20535;-83
2021/06/11 05:43:09;;;;;;;5.63;3.50;;;;;;;22.58;50.36;99551.66;5000720;28;20237;-84
2021/06/11 05:45:37;;;;;;;6.68;3.15;;;;;;;22.77;50.00;99560.59;5017018;28;20617;-80
2021/06/11 05:48:04;;;;;;;7.15;3.22;;;;;;;22.86;49.47;99552.53;5016496;28;20237;-81
2021/06/11 05:50:31;;;;;;;6.78;3.10;;;;;;;22.94;48.90;99551.84;5001057;28;20311;-80
2021/06/11 05:52:58;;;;;;;6.65;3.33;;;;;;;22.87;49.13;99547.88;5000573;28;20299;-81
2021/06/11 05:55:25;;;;;;;5.25;3.20;;;;;;;23.03;48.81;99552.75;5016735;28;20237;-80
2021/06/11 05:57:52;;;;;;;4.60;3.13;;;;;;;23.27;48.90;99566.22;5000731;28;20253;-83
2021/06/11 06:00:21;;;;;;;4.13;3.38;;;;;;;23.24;47.61;99556.69;5016384;28;20634;-85
2021/06/11 06:02:47;;;;;;;4.32;3.00;;;;;;;23.34;47.40;99561.13;5000135;28;20222;-82
2021/06/11 06:05:14;;;;;;;5.63;2.95;;;;;;;23.35;48.51;99556.47;5016539;28;20283;-80
2021/06/11 06:07:41;;;;;;;9.93;3.13;;;;;;;23.54;48.11;99558.00;5000404;28;20329;-83
2021/06/11 06:10:09;;;;;;;4.68;2.95;;;;;;;23.58;47.51;99556.28;5016123;28;20820;-82
2021/06/11 06:12:35;;;;;;;5.45;3.10;;;;;;;23.54;47.52;99557.19;5016384;28;20634;-83
2021/06/11 06:15:04;;;;;;;5.10;3.20;;;;;;;23.36;48.00;99567.13;5000274;28;20226;-84
2021/06/11 06:17:35;;;;;;;4.60;3.05;;;;;;;23.77;47.50;99561.59;5016482;28;20237;-80
2021/06/11 06:20:12;;;;;;;5.47;3.28;;;;;;;23.81;46.95;99565.34;4984083;28;20241;-81
2021/06/11 06:22:41;;;;;;;5.68;3.05;;;;;;;23.93;46.72;99560.16;5000284;28;20258;-80
2021/06/11 06:25:08;;;;;;;4.65;3.30;;;;;;;23.98;46.77;99551.81;4999859;28;20318;-83
2021/06/11 06:27:36;;;;;;;3.50;3.22;;;;;;;24.01;46.74;99553.13;5016105;28;20638;-85
2021/06/11 06:30:04;;;;;;;7.20;3.10;;;;;;;24.03;47.33;99540.72;4999561;28;20310;-81
2021/06/11 06:32:31;;;;;;;4.07;3.40;;;;;;;24.07;46.48;99547.22;4983276;28;20547;-85
2021/06/11 06:34:58;;;;;;;4.28;3.10;;;;;;;24.07;46.47;99546.41;4992477;28;20311;-84
2021/06/11 06:37:25;;;;;;;3.30;2.80;;;;;;;24.08;44.65;99554.28;5005312;28;20258;-85
2021/06/11 06:39:52;;;;;;;5.20;3.20;;;;;;;24.16;44.97;99552.78;5005325;28;20314;-81
2021/06/11 06:42:19;;;;;;;3.13;2.90;;;;;;;24.28;43.63;99555.78;4994093;28;20223;-81
2021/06/11 06:44:46;;;;;;;3.45;3.13;;;;;;;24.28;43.92;99544.81;4992160;28;20226;-84
2021/06/11 06:47:13;;;;;;;3.55;3.25;;;;;;;24.46;43.92;99549.28;4998712;28;21032;-84
2021/06/11 06:49:41;;;;;;;3.03;2.83;;;;;;;24.07;44.13;99543.69;5015891;28;20227;-81
2021/06/11 06:52:07;;;;;;;3.30;3.00;;;;;;;24.21;42.83;99549.13;5008993;28;20303;-81
2021/06/11 06:54:34;;;;;;;3.25;3.05;;;;;;;24.20;43.22;99550.25;4980023;28;20306;-84
2021/06/11 06:57:02;;;;;;;3.30;3.00;;;;;;;24.18;43.81;99549.72;4980089;28;20544;-84
2021/06/11 06:59:29;;;;;;;3.75;3.00;;;;;;;24.19;43.86;99541.22;4995516;28;20644;-84
2021/06/11 07:02:00;;;;;;;3.47;3.20;;;;;;;24.42;43.81;99550.22;4995850;28;20236;-82
2021/06/11 07:04:27;;;;;;;3.28;3.08;;;;;;;24.60;43.28;99557.41;4995134;28;20234;-82
2021/06/11 07:06:55;;;;;;;3.17;2.95;;;;;;;24.35;43.35;99556.16;4995684;28;20223;-81
2021/06/11 07:09:22;;;;;;;3.38;3.17;;;;;;;24.52;43.38;99560.94;4971016;28;20223;-84
2021/06/11 07:11:49;;;;;;;3.30;3.08;;;;;;;24.47;43.75;99550.91;4993339;28;20727;-84
2021/06/11 07:14:16;;;;;;;3.80;3.50;;;;;;;24.49;43.36;99558.81;4982591;28;20257;-84
2021/06/11 07:16:44;;;;;;;3.10;2.90;;;;;;;24.43;43.20;99558.13;5015195;28;20222;-85
2021/06/11 07:19:11;;;;;;;3.63;3.25;;;;;;;24.41;42.92;99556.81;4998807;28;20235;-82
2021/06/11 07:21:38;;;;;;;3.50;3.20;;;;;;;24.46;42.93;99556.69;4999070;28;20238;-85
2021/06/11 07:24:06;;;;;;;4.03;3.28;;;;;;;24.54;43.21;99561.44;4998090;28;20237;-81
2021/06/11 07:26:33;;;;;;;3.65;3.35;;;;;;;24.49;43.51;99556.91;5014777;28;20518;-82
2021/06/11 07:29:00;;;;;;;4.07;3.67;;;;;;;24.66;43.44;99549.88;5015108;28;20227;-83
2021/06/11 07:31:27;;;;;;;3.92;3.60;;;;;;;24.49;43.16;99558.81;4997161;28;20254;-82
2021/06/11 07:33:54;;;;;;;4.35;3.22;;;;;;;24.65;43.80;99564.69;5012008;28;20519;-84
2021/06/11 07:36:21;;;;;;;3.65;3.33;;;;;;;24.34;44.07;99557.28;4997379;28;20238;-80
2021/06/11 07:38:48;;;;;;;4.68;3.47;;;;;;;24.35;44.34;99555.34;4997859;28;20589;-82
2021/06/11 07:41:15;;;;;;;3.92;3.40;;;;;;;24.55;44.89;99561.09;5014085;28;20227;-83
2021/06/11 07:43:42;;;;;;;3.90;3.60;;;;;;;24.37;44.00;99561.31;4994360;28;20312;-80
2021/06/11 07:46:08;;;;;;;3.90;3.55;;;;;;;24.49;44.48;99556.91;5010641;28;20630;-84
2021/06/11 07:48:35;;;;;;;6.18;4.13;;;;;;;24.46;43.73;99562.97;4994396;28;20223;-82
2021/06/11 07:51:02;;;;;;;4.63;3.38;;;;;;;24.44;44.42;99550.72;4994754;28;20608;-85
2021/06/11 07:53:29;;;;;;;4.47;3.65;;;;;;;24.65;44.15;99560.03;5009640;28;20235;-84
2021/06/11 07:55:55;;;;;;;5.50;3.90;;;;;;;24.90;44.07;99561.31;4994367;28;20441;-81
2021/06/11 07:58:22;;;;;;;4.38;3.70;;;;;;;24.83;43.16;99552.69;5010100;28;20293;-82
2021/06/11 08:00:49;;;;;;;4.22;3.92;;;;;;;24.77;43.45;99564.94;4978500;28;20322;-84
2021/06/11 08:03:16;;;;;;;4.10;3.80;;;;;;;24.77;43.58;99552.06;4977789;28;20235;-83
2021/06/11 08:05:43;;;;;;;3.85;3.55;;;;;;;24.69;44.21;99558.28;5010378;28;20616;-85
2021/06/11 08:08:10;;;;;;;4.35;4.05;;;;;;;25.00;43.58;99552.81;4977721;28;20255;-83
2021/06/11 08:10:37;;;;;;;3.72;3.42;;;;;;;25.08;42.95;99549.31;5010488;28;20258;-82
2021/06/11 08:13:04;;;;;;;4.07;3.78;;;;;;;25.08;43.00;99545.75;5010437;28;20582;-80
2021/06/11 08:15:32;;;;;;;4.75;3.83;;;;;;;25.22;42.86;99560.16;4994647;28;20654;-84
2021/06/11 08:17:58;;;;;;;4.40;4.10;;;;;;;25.00;42.84;99541.88;4994131;28;20231;-83
2021/06/11 08:20:26;;;;;;;4.07;3.78;;;;;;;25.09;43.87;99550.94;4993314;28;20279;-84
2021/06/11 08:22:53;;;;;;;4.40;3.95;;;;;;;25.20;43.13;99540.47;5009994;28;20318;-81
2021/06/11 08:25:22;;;;;;;4.35;3.95;;;;;;;25.25;42.97;99552.09;4993421;28;20234;-82
2021/06/11 08:27:49;;;;;;;5.13;4.57;;;;;;;25.35;42.17;99545.50;5009750;28;20231;-80
2021/06/11 08:30:17;;;;;;;4.20;3.88;;;;;;;25.65;42.57;99554.81;4993407;28;20260;-81
2021/06/11 08:32:47;;;;;;;4.38;4.00;;;;;;;25.37;42.74;99544.06;5009912;28;20235;-83
2021/06/11 08:35:14;;;;;;;4.60;4.15;;;;;;;25.64;42.92;99553.19;5009635;28;20243;-83
2021/06/11 08:37:41;;;;;;;5.53;4.07;;;;;;;25.71;42.85;99551.56;5009845;28;20239;-82
2021/06/11 08:40:08;;;;;;;4.30;3.95;;;;;;;25.74;42.33;99545.47;5009289;28;20235;-83
2021/06/11 08:42:36;;;;;;;4.50;4.10;;;;;;;25.97;41.52;99548.84;5010041;28;20633;-82
2021/06/11 08:45:06;;;;;;;4.43;3.90;;;;;;;26.12;41.84;99553.88;5009480;28;20302;-83
2021/06/11 08:47:33;;;;;;;4.32;3.92;;;;;;;26.06;41.10;99537.88;4993354;28;20266;-82
2021/06/11 08:50:01;;;;;;;4.68;4.38;;;;;;;26.01;41.92;99549.00;4977767;28;20582;-81
2021/06/11 08:52:28;;;;;;;4.95;4.55;;;;;;;26.12;41.38;99537.38;4993239;28;20576;-83
2021/06/11 08:54:55;;;;;;;6.20;4.32;;;;;;;26.20;41.74;99546.75;4993291;28;20238;-83
2021/06/11 08:57:23;;;;;;;4.70;4.40;;;;;;;25.93;41.36;99534.16;4993424;28;20261;-82
2021/06/11 08:59:52;;;;;;;4.80;4.50;;;;;;;26.08;40.73;99543.84;4993235;28;20311;-81
2021/06/11 09:02:20;;;;;;;5.20;4.80;;;;;;;26.31;40.33;99550.81;4977198;28;20229;-80
2021/06/11 09:04:53;;;;;;;4.68;4.38;;;;;;;26.73;40.16;99547.16;4977998;28;20315;-85
2021/06/11 09:07:29;;;;;;;4.80;4.18;;;;;;;26.95;39.43;99553.56;4981507;28;20234;-84
2021/06/11 09:09:59;;;;;;;6.05;4.65;;;;;;;26.97;37.27;99537.56;4980989;28;20582;-80
2021/06/11 09:12:31;;;;;;;4.45;4.15;;;;;;;26.72;38.20;99540.03;4996123;28;20797;-82
2021/06/11 09:15:00;;;;;;;5.43;4.93;;;;;;;26.99;38.62;99529.78;4995541;28;20233;-84
2021/06/11 09:17:37;;;;;;;4.72;4.32;;;;;;;27.32;39.03;99538.19;4979859;28;20269;-83
2021/06/11 09:20:14;;;;;;;4.97;4.55;;;;;;;27.33;38.47;99539.78;4996577;28;20643;-81
2021/06/11 09:22:46;;;;;;;4.60;4.30;;;;;;;27.14;38.46;99537.47;4997409;28;20225;-80
2021/06/11 09:25:34;;;;;;;5.13;4.68;;;;;;;26.86;38.89;99537.13;4996725;28;20241;-83
2021/06/11 09:28:05;;;;;;;5.15;4.75;;;;;;;26.61;39.45;99527.78;4981030;28;20238;-81
2021/06/11 09:30:46;;;;;;;5.18;4.78;;;;;;;26.80;39.14;99521.09;4997129;28;20334;-84
2021/06/11 09:33:16;;;;;;;6.32;4.43;;;;;;;26.94;37.00;99524.47;4964842;28;20637;-83
2021/06/11 09:35:50;;;;;;;5.10;4.60;;;;;;;26.75;37.06;99522.06;4980774;28;20231;-82
2021/06/11 09:38:22;;;;;;;4.82;4.53;;;;;;;26.96;37.89;99508.44;4980438;28;20262;-84
2021/06/11 09:40:56;;;;;;;4.85;4.40;;;;;;;27.20;36.35;99492.16;4980950;28;20229;-81
2021/06/11 09:43:25;;;;;;;4.80;4.40;;;;;;;26.84;36.47;99525.59;5002915;28;20242;-84
2021/06/11 09:46:13;;;;;;;4.53;4.18;;;;;;;27.06;35.23;99502.59;5015685;28;20320;-84
2021/06/11 09:48:41;;;;;;;4.50;4.10;;;;;;;27.29;36.30;99494.84;4998767;28;20561;-81
2021/06/11 09:51:15;;;;;;;5.15;4.63;;;;;;;27.26;35.65;99492.75;5000015;28;20263;-85
2021/06/11 09:53:42;;;;;;;4.47;4.07;;;;;;;26.98;34.20;99500.66;5002449;28;20234;-81
2021/06/11 09:56:22;;;;;;;4.20;3.80;;;;;;;27.30;35.42;99488.19;5014359;28;20638;-84
2021/06/11 09:58:50;;;;;;;4.32;4.03;;;;;;;27.34;36.31;99489.16;5000742;28;20697;-81
2021/06/11 10:01:17;;;;;;;7.88;4.18;;;;;;;27.52;34.74;99485.16;5016937;28;20234;-85
2021/06/11 10:03:48;;;;;;;5.60;3.85;;;;;;;28.09;34.99;99482.53;5000792;28;20488;-84
2021/06/11 10:06:17;;;;;;;4.88;4.25;;;;;;;27.64;34.73;99478.91;5016147;28;20280;-84
2021/06/11 10:08:45;;;;;;;4.43;4.05;;;;;;;27.63;33.38;99474.53;5000260;28;20230;-83
2021/06/11 10:11:25;;;;;;;3.85;3.53;;;;;;;27.77;33.77;99472.31;4999939;28;20229;-83
2021/06/11 10:13:53;;;;;;;4.32;3.92;;;;;;;27.96;33.80;99475.38;4984505;28;20316;-80
2021/06/11 10:16:20;;;;;;;4.10;3.80;;;;;;;28.00;33.89;99474.38;5015745;28;20314;-84
2021/06/11 10:18:48;;;;;;;4.22;3.88;;;;;;;27.97;33.95;99457.72;5000442;28;20514;-83
2021/06/11 10:21:15;;;;;;;4.30;4.00;;;;;;;28.23;32.13;99463.81;5016396;28;20288;-85
2021/06/11 10:23:42;;;;;;;4.57;4.28;;;;;;;28.29;33.24;99448.69;5014588;28;20242;-80
2021/06/11 10:26:11;;;;;;;4.50;4.10;;;;;;;28.23;32.97;99439.00;5027663;28;20578;-82
2021/06/11 10:28:48;;;;;;;4.00;3.70;;;;;;;27.55;33.12;99449.53;5002480;28;20222;-84
2021/06/11 10:31:17;;;;;;;6.88;4.05;;;;;;;27.45;33.43;99449.91;5002641;28;20660;-81
2021/06/11 10:33:44;;;;;;;4.03;3.70;;;;;;;27.69;33.03;99451.19;5018641;28;20637;-83
2021/06/11 10:38:57;;;;;;;4.20;3.90;;;;;;;28.65;33.17;99445.16;5018615;28;20537;-83
2021/06/11 10:41:25;;;;;;;3.25;3.05;;;;;;;28.45;31.77;99433.09;5002256;28;20231;-83
2021/06/11 10:43:52;;;;;;;3.97;3.60;;;;;;;28.25;30.64;99438.69;5018446;28;20583;-84
2021/06/11 10:46:30;;;;;;;3.80;3.50;;;;;;;28.31;31.49;99429.06;5018214;28;20226;-84
2021/06/11 10:48:57;;;;;;;3.40;3.10;;;;;;;28.41;29.90;99434.94;5002662;28;20234;-86
2021/06/11 10:51:33;;;;;;;3.70;3.40;;;;;;;28.61;30.01;99426.91;5035882;28;20226;-84
2021/06/11 10:54:15;;;;;;;3.53;3.33;;;;;;;28.96;30.77;99430.03;5018090;28;20229;-82
2021/06/11 10:57:01;;;;;;;3.88;3.58;;;;;;;28.78;31.08;99424.78;5015962;28;20260;-83
2021/06/11 10:59:38;;;;;;;4.93;3.78;;;;;;;28.40;31.87;99419.56;5034471;28;20253;-84
2021/06/11 11:02:05;;;;;;;4.53;3.42;;;;;;;28.23;31.26;99422.47;5001529;28;20317;-84
2021/06/11 11:04:38;;;;;;;3.80;3.50;;;;;;;28.32;31.06;99412.16;5017814;28;20284;-83
2021/06/11 11:07:28;;;;;;;3.63;3.33;;;;;;;28.49;29.88;99418.63;5034573;28;20244;-84
2021/06/11 11:09:57;;;;;;;3.58;3.30;;;;;;;28.97;30.11;99406.84;5001324;28;20232;-83
2021/06/11 11:12:27;;;;;;;4.00;3.70;;;;;;;29.31;28.28;99418.16;5001362;28;20662;-82
2021/06/11 11:14:56;;;;;;;3.40;3.10;;;;;;;29.75;27.34;99407.22;5017823;28;20296;-81
2021/06/11 11:17:24;;;;;;;2.67;2.47;;;;;;;29.83;26.54;99414.53;5018122;28;20308;-83
2021/06/11 11:19:51;;;;;;;3.28;2.97;;;;;;;29.07;28.76;99414.63;5017842;28;20244;-81
2021/06/11 11:22:38;;;;;;;3.78;3.42;;;;;;;29.18;29.88;99411.03;5001661;28;20289;-83
2021/06/11 11:25:13;;;;;;;5.80;3.90;;;;;;;28.83;30.00;99416.28;4981955;28;20231;-84
2021/06/11 11:27:41;;;;;;;3.70;3.50;;;;;;;29.12;29.70;99409.66;4981957;28;20622;-84
2021/06/11 11:30:10;;;;;;;3.50;3.30;;;;;;;29.64;28.94;99412.41;4997708;28;20277;-84
2021/06/11 11:32:36;;;;;;;3.00;2.80;;;;;;;29.73;26.81;99395.69;4998142;28;20284;-83
2021/06/11 11:35:04;;;;;;;3.80;3.25;;;;;;;29.18;27.80;99405.53;4981746;28;20231;-81
2021/06/11 11:37:32;;;;;;;2.90;2.70;;;;;;;29.61;26.71;99398.53;4981836;28;20330;-84
2021/06/11 11:40:00;;;;;;;3.17;2.88;;;;;;;30.08;25.99;99401.44;4997913;28;20227;-81
2021/06/11 11:42:26;;;;;;;2.85;2.60;;;;;;;31.12;24.86;99381.50;4981390;28;20257;-83
2021/06/11 11:44:53;;;;;;;2.90;2.70;;;;;;;32.15;23.15;99389.94;5000175;28;20256;-79
2021/06/11 11:47:20;;;;;;;3.40;3.10;;;;;;;31.36;25.70;99395.06;5000853;28;20280;-83